createdAt,value
2022-09-22T00:02:09.711Z,100.00
2022-09-22T00:04:37.526Z,100.00
2022-09-22T00:07:05.173Z,100.00
2022-09-22T00:09:33.047Z,100.00
2022-09-22T00:12:09.124Z,100.00
2022-09-22T00:14:37.668Z,100.00
2022-09-22T00:17:09.716Z,100.00
2022-09-22T00:19:44.905Z,100.00
2022-09-22T00:22:13.511Z,100.00
2022-09-22T00:24:46.164Z,100.00
2022-09-22T00:27:17.167Z,100.00
2022-09-22T00:29:54.604Z,100.00
2022-09-22T00:32:23.803Z,100.00
2022-09-22T00:34:55.761Z,100.00
2022-09-22T00:37:28.857Z,100.00
2022-09-22T00:39:59.460Z,99.94
2022-09-22T00:42:28.482Z,99.46
2022-09-22T00:44:57.461Z,99.05
2022-09-22T00:47:45.019Z,100.00
2022-09-22T00:50:31.704Z,100.00
2022-09-22T00:53:08.526Z,100.00
2022-09-22T00:55:51.319Z,100.00
2022-09-22T00:58:31.455Z,100.00
2022-09-22T01:01:08.483Z,100.00
2022-09-22T01:03:46.744Z,100.00
2022-09-22T01:06:21.289Z,100.00
2022-09-22T01:08:50.979Z,100.00
2022-09-22T01:11:27.767Z,100.00
2022-09-22T01:14:47.149Z,100.00
2022-09-22T01:17:35.906Z,100.00
2022-09-22T01:20:55.557Z,100.00
2022-09-22T01:24:16.745Z,100.00
2022-09-22T01:27:29.505Z,100.00
2022-09-22T01:30:45.616Z,100.00
2022-09-22T01:33:39.291Z,100.00
2022-09-22T01:36:57.520Z,100.00
2022-09-22T01:40:00.601Z,100.00
2022-09-22T01:42:37.836Z,100.00
2022-09-22T01:45:35.833Z,100.00
2022-09-22T01:48:26.369Z,100.00
2022-09-22T01:51:08.451Z,100.00
2022-09-22T01:53:49.223Z,100.00
2022-09-22T01:56:20.385Z,100.00
2022-09-22T01:58:57.593Z,100.00
2022-09-22T02:01:38.639Z,100.00
2022-09-22T02:04:24.649Z,100.00
2022-09-22T02:07:14.111Z,100.00
2022-09-22T02:09:45.969Z,100.00
2022-09-22T02:12:13.737Z,100.00
2022-09-22T02:14:46.924Z,100.00
2022-09-22T02:17:16.316Z,100.00
2022-09-22T02:19:44.283Z,100.00
2022-09-22T02:22:12.862Z,100.00
2022-09-22T02:24:47.000Z,100.00
2022-09-22T02:27:35.725Z,100.00
2022-09-22T02:30:08.914Z,100.00
2022-09-22T02:32:39.746Z,100.00
2022-09-22T02:35:09.250Z,100.00
2022-09-22T02:38:19.200Z,100.00
2022-09-22T02:41:21.102Z,100.00
2022-09-22T02:43:55.497Z,100.00
2022-09-22T02:46:36.860Z,100.00
2022-09-22T02:49:16.960Z,100.00
2022-09-22T02:51:48.883Z,100.00
2022-09-22T02:54:17.014Z,100.00
2022-09-22T02:56:45.510Z,100.00
2022-09-22T02:59:13.242Z,100.00
2022-09-22T03:01:43.824Z,100.00
2022-09-22T03:04:13.710Z,100.00
2022-09-22T03:06:46.360Z,100.00
2022-09-22T03:09:18.776Z,100.00
2022-09-22T03:11:47.421Z,100.00
2022-09-22T03:14:19.909Z,100.00
2022-09-22T03:16:47.554Z,100.00
2022-09-22T03:19:15.125Z,100.00
2022-09-22T03:21:45.653Z,100.00
2022-09-22T03:24:13.304Z,100.00
2022-09-22T03:26:47.500Z,100.00
2022-09-22T03:29:20.833Z,100.00
2022-09-22T03:31:50.956Z,100.00
2022-09-22T03:34:22.011Z,100.00
2022-09-22T03:37:01.518Z,100.00
2022-09-22T03:39:30.592Z,100.00
2022-09-22T03:42:08.115Z,100.00
2022-09-22T03:44:39.269Z,100.00
2022-09-22T03:47:08.447Z,100.00
2022-09-22T03:49:42.047Z,100.00
2022-09-22T03:52:10.564Z,100.00
2022-09-22T03:54:44.358Z,100.00
2022-09-22T03:57:15.074Z,100.00
2022-09-22T03:59:47.873Z,100.00
2022-09-22T04:02:16.315Z,100.00
2022-09-22T04:04:45.333Z,100.00
2022-09-22T04:07:24.205Z,100.00
2022-09-22T04:09:58.559Z,100.00
2022-09-22T04:12:27.174Z,100.00
2022-09-22T04:14:57.498Z,100.00
2022-09-22T04:17:28.108Z,100.00
2022-09-22T04:19:56.508Z,100.00
2022-09-22T04:22:35.331Z,100.00
2022-09-22T04:25:08.095Z,100.00
2022-09-22T04:27:37.910Z,100.00
2022-09-22T04:30:09.535Z,100.00
2022-09-22T04:32:50.235Z,100.00
2022-09-22T04:35:19.716Z,100.00
2022-09-22T04:37:48.422Z,100.00
2022-09-22T04:40:18.661Z,100.00
2022-09-22T04:42:56.441Z,100.00
2022-09-22T04:45:25.514Z,100.00
2022-09-22T04:47:57.912Z,100.00
2022-09-22T04:50:31.183Z,100.00
2022-09-22T04:53:02.067Z,100.00
2022-09-22T04:55:30.441Z,100.00
2022-09-22T04:58:01.488Z,100.00
2022-09-22T05:00:35.672Z,100.00
2022-09-22T05:03:13.436Z,100.00
2022-09-22T05:05:50.886Z,100.00
2022-09-22T05:08:21.834Z,100.00
2022-09-22T05:10:54.613Z,100.00
2022-09-22T05:13:32.792Z,100.00
2022-09-22T05:16:12.069Z,100.00
2022-09-22T05:18:50.721Z,100.00
2022-09-22T05:21:19.673Z,100.00
2022-09-22T05:23:51.317Z,100.00
2022-09-22T05:26:23.463Z,100.00
2022-09-22T05:28:51.952Z,100.00
2022-09-22T05:31:23.429Z,100.00
2022-09-22T05:33:59.498Z,100.00
2022-09-22T05:36:28.651Z,100.00
2022-09-22T05:39:03.494Z,100.00
2022-09-22T05:41:33.042Z,100.00
2022-09-22T05:44:07.327Z,100.00
2022-09-22T05:46:35.908Z,100.00
2022-09-22T05:49:07.496Z,100.00
2022-09-22T05:51:35.103Z,100.00
2022-09-22T05:54:21.235Z,100.00
2022-09-22T05:56:51.753Z,100.00
2022-09-22T05:59:21.824Z,100.00
2022-09-22T06:02:13.316Z,100.00
2022-09-22T06:04:50.153Z,100.00
2022-09-22T06:07:28.556Z,100.00
2022-09-22T06:10:00.502Z,100.00
2022-09-22T06:12:30.529Z,100.00
2022-09-22T06:15:04.448Z,100.00
2022-09-22T06:17:38.606Z,100.00
2022-09-22T06:20:09.607Z,100.00
2022-09-22T06:22:40.560Z,100.00
2022-09-22T06:25:15.593Z,100.00
2022-09-22T06:27:44.448Z,100.00
2022-09-22T06:30:16.022Z,100.00
2022-09-22T06:32:56.076Z,100.00
2022-09-22T06:35:33.511Z,100.00
2022-09-22T06:38:08.009Z,100.00
2022-09-22T06:40:43.903Z,100.00
2022-09-22T06:43:27.292Z,100.00
2022-09-22T06:46:03.983Z,100.00
2022-09-22T06:48:32.759Z,100.00
2022-09-22T06:51:01.414Z,100.00
2022-09-22T06:53:32.137Z,100.00
2022-09-22T06:56:09.996Z,100.00
2022-09-22T06:59:05.609Z,100.00
2022-09-22T07:01:30.894Z,100.00
2022-09-22T07:04:01.529Z,100.00
2022-09-22T07:06:35.412Z,100.00
2022-09-22T07:09:09.666Z,100.00
2022-09-22T07:11:40.356Z,100.00
2022-09-22T07:14:12.039Z,100.00
2022-09-22T07:16:44.752Z,100.00
2022-09-22T07:19:13.507Z,100.00
2022-09-22T07:21:44.630Z,100.00
2022-09-22T07:24:13.338Z,100.00
2022-09-22T07:26:51.732Z,100.00
2022-09-22T07:29:25.434Z,98.89
2022-09-22T07:31:54.609Z,100.00
2022-09-22T07:34:23.420Z,98.80
2022-09-22T07:36:54.358Z,100.00
2022-09-22T07:39:33.307Z,98.10
2022-09-22T07:42:05.271Z,97.99
2022-09-22T07:44:55.331Z,97.59
2022-09-22T07:47:49.336Z,98.13
2022-09-22T07:50:30.826Z,95.34
2022-09-22T07:53:00.614Z,95.39
2022-09-22T07:55:30.222Z,95.01
2022-09-22T07:58:00.445Z,96.44
2022-09-22T08:00:37.061Z,94.35
2022-09-22T08:03:13.482Z,94.79
2022-09-22T08:05:43.831Z,93.17
2022-09-22T08:08:17.716Z,94.74
2022-09-22T08:10:48.677Z,92.84
2022-09-22T08:13:16.418Z,92.19
2022-09-22T08:15:47.890Z,90.41
2022-09-22T08:18:18.915Z,90.28
2022-09-22T08:20:52.123Z,90.09
2022-09-22T08:23:23.656Z,89.47
2022-09-22T08:25:51.934Z,89.20
2022-09-22T08:28:21.298Z,89.42
2022-09-22T08:30:58.129Z,86.69
2022-09-22T08:33:27.842Z,89.04
2022-09-22T08:35:59.908Z,87.22
2022-09-22T08:38:28.800Z,86.38
2022-09-22T08:41:18.891Z,86.70
2022-09-22T08:43:55.467Z,88.33
2022-09-22T08:46:33.931Z,85.14
2022-09-22T08:50:17.491Z,85.00
2022-09-22T08:52:56.337Z,84.27
2022-09-22T08:55:28.482Z,83.16
2022-09-22T08:58:35.582Z,82.08
2022-09-22T09:01:53.149Z,80.86
2022-09-22T09:04:48.419Z,82.50
2022-09-22T09:07:46.556Z,79.60
2022-09-22T09:11:19.537Z,78.76
2022-09-22T09:14:22.580Z,79.94
2022-09-22T09:17:05.869Z,78.43
2022-09-22T09:20:13.504Z,80.46
2022-09-22T09:22:56.061Z,77.28
2022-09-22T09:25:35.153Z,77.36
2022-09-22T09:28:25.367Z,76.53
2022-09-22T09:31:21.618Z,76.58
2022-09-22T09:34:03.169Z,75.89
2022-09-22T09:36:55.924Z,74.30
2022-09-22T09:39:36.057Z,73.78
2022-09-22T09:42:28.578Z,74.76
2022-09-22T09:45:04.352Z,73.18
2022-09-22T09:48:03.887Z,71.58
2022-09-22T09:50:32.639Z,71.48
2022-09-22T09:53:01.264Z,70.15
2022-09-22T09:55:29.919Z,69.00
2022-09-22T09:58:34.555Z,70.65
2022-09-22T10:01:03.150Z,68.22
2022-09-22T10:03:47.162Z,68.48
2022-09-22T10:06:27.030Z,70.41
2022-09-22T10:08:55.299Z,68.32
2022-09-22T10:11:36.382Z,70.35
2022-09-22T10:14:20.021Z,67.80
2022-09-22T10:16:54.016Z,69.86
2022-09-22T10:19:34.921Z,66.54
2022-09-22T10:22:35.453Z,67.99
2022-09-22T10:25:07.727Z,67.08
2022-09-22T10:27:36.923Z,65.18
2022-09-22T10:30:23.944Z,63.21
2022-09-22T10:33:25.990Z,64.50
2022-09-22T10:36:15.275Z,61.70
2022-09-22T10:38:54.512Z,60.93
2022-09-22T10:41:37.324Z,61.66
2022-09-22T10:44:38.137Z,60.96
2022-09-22T10:47:33.585Z,60.18
2022-09-22T10:50:27.560Z,59.32
2022-09-22T10:53:23.974Z,59.05
2022-09-22T10:56:32.368Z,60.64
2022-09-22T10:59:33.353Z,59.31
2022-09-22T11:02:48.898Z,58.50
2022-09-22T11:05:50.895Z,58.96
2022-09-22T11:08:42.836Z,59.05
2022-09-22T11:11:48.692Z,60.25
2022-09-22T11:15:08.327Z,59.86
2022-09-22T11:18:03.738Z,58.29
2022-09-22T11:21:37.765Z,57.93
2022-09-22T11:24:34.243Z,57.78
2022-09-22T11:27:14.193Z,57.10
2022-09-22T11:30:11.172Z,58.40
2022-09-22T11:32:54.614Z,59.09
2022-09-22T11:35:51.731Z,55.85
2022-09-22T11:39:23.800Z,57.64
2022-09-22T11:42:31.525Z,57.05
2022-09-22T11:45:08.569Z,57.44
2022-09-22T11:48:44.854Z,56.13
2022-09-22T11:51:40.572Z,57.21
2022-09-22T11:54:31.114Z,57.39
2022-09-22T11:57:05.389Z,55.83
2022-09-22T11:59:39.379Z,57.34
2022-09-22T12:02:27.598Z,55.89
2022-09-22T12:05:12.593Z,55.46
2022-09-22T12:08:06.260Z,56.61
2022-09-22T12:10:45.907Z,54.67
2022-09-22T12:13:28.417Z,55.33
2022-09-22T12:16:27.614Z,57.34
2022-09-22T12:19:30.319Z,54.96
2022-09-22T12:22:48.092Z,55.97
2022-09-22T12:25:51.848Z,55.14
2022-09-22T12:28:31.669Z,54.23
2022-09-22T12:31:15.605Z,54.43
2022-09-22T12:33:54.890Z,54.42
2022-09-22T12:36:43.340Z,55.37
2022-09-22T12:39:31.361Z,55.73
2022-09-22T12:42:21.365Z,56.27
2022-09-22T12:45:34.493Z,55.46
2022-09-22T12:48:38.733Z,54.20
2022-09-22T12:51:33.400Z,56.25
2022-09-22T12:54:25.875Z,54.45
2022-09-22T12:57:03.394Z,53.96
2022-09-22T12:59:43.091Z,55.91
2022-09-22T13:02:20.185Z,56.42
2022-09-22T13:04:57.007Z,53.18
2022-09-22T13:07:43.653Z,55.58
2022-09-22T13:10:29.888Z,55.08
2022-09-22T13:13:06.405Z,54.53
2022-09-22T13:15:52.111Z,54.25
2022-09-22T13:18:38.434Z,54.07
2022-09-22T13:21:25.796Z,54.16
2022-09-22T13:24:05.454Z,54.34
2022-09-22T13:26:41.033Z,56.41
2022-09-22T13:29:21.477Z,54.82
2022-09-22T13:31:58.784Z,55.98
2022-09-22T13:34:37.301Z,57.73
2022-09-22T13:37:14.385Z,56.15
2022-09-22T13:39:53.286Z,55.43
2022-09-22T13:42:33.593Z,56.60
2022-09-22T13:45:22.300Z,54.59
2022-09-22T13:48:04.884Z,55.42
2022-09-22T13:50:59.887Z,54.23
2022-09-22T13:53:29.335Z,53.39
2022-09-22T13:56:02.074Z,54.83
2022-09-22T13:58:43.371Z,55.65
2022-09-22T14:01:30.767Z,54.80
2022-09-22T14:04:07.370Z,56.16
2022-09-22T14:06:38.517Z,55.87
2022-09-22T14:09:09.452Z,55.74
2022-09-22T14:11:44.304Z,56.87
2022-09-22T14:14:28.429Z,56.09
2022-09-22T14:17:16.900Z,56.50
2022-09-22T14:20:18.003Z,57.21
2022-09-22T14:22:50.554Z,55.50
2022-09-22T14:25:23.406Z,55.73
2022-09-22T14:27:56.190Z,57.31
2022-09-22T14:30:31.721Z,56.96
2022-09-22T14:33:07.181Z,59.24
2022-09-22T14:35:45.522Z,58.53
2022-09-22T14:38:26.335Z,56.48
2022-09-22T14:41:03.425Z,56.75
2022-09-22T14:43:43.499Z,58.77
2022-09-22T14:46:45.592Z,58.37
2022-09-22T14:49:44.874Z,55.56
2022-09-22T14:52:39.858Z,56.40
2022-09-22T14:55:49.933Z,55.70
2022-09-22T14:58:30.375Z,55.73
2022-09-22T15:01:46.950Z,55.33
2022-09-22T15:04:19.456Z,54.23
2022-09-22T15:06:48.629Z,54.60
2022-09-22T15:09:34.782Z,54.95
2022-09-22T15:12:26.401Z,55.16
2022-09-22T15:15:03.566Z,55.73
2022-09-22T15:18:20.401Z,56.80
2022-09-22T15:21:16.051Z,55.75
2022-09-22T15:23:48.686Z,55.09
2022-09-22T15:26:25.691Z,54.34
2022-09-22T15:28:56.673Z,54.67
2022-09-22T15:31:29.215Z,57.66
2022-09-22T15:34:02.602Z,56.03
2022-09-22T15:36:49.648Z,57.58
2022-09-22T15:39:30.728Z,55.90
2022-09-22T15:42:01.726Z,56.32
2022-09-22T15:44:40.160Z,57.58
2022-09-22T15:47:17.327Z,58.25
2022-09-22T15:49:45.293Z,57.54
2022-09-22T15:52:15.724Z,55.25
2022-09-22T15:54:49.542Z,56.58
2022-09-22T15:57:24.941Z,56.60
2022-09-22T15:59:56.323Z,58.09
2022-09-22T16:02:26.319Z,58.29
2022-09-22T16:04:59.599Z,56.60
2022-09-22T16:07:27.697Z,55.87
2022-09-22T16:10:03.359Z,58.02
2022-09-22T16:12:38.117Z,58.33
2022-09-22T16:15:17.250Z,58.94
2022-09-22T16:17:48.775Z,58.98
2022-09-22T16:20:20.635Z,58.20
2022-09-22T16:22:48.790Z,57.87
2022-09-22T16:25:21.824Z,58.61
2022-09-22T16:27:52.173Z,56.96
2022-09-22T16:30:25.294Z,58.60
2022-09-22T16:32:55.858Z,59.11
2022-09-22T16:35:24.693Z,59.35
2022-09-22T16:37:56.359Z,60.18
2022-09-22T16:40:30.076Z,63.68
2022-09-22T16:43:03.365Z,64.22
2022-09-22T16:45:49.559Z,64.46
2022-09-22T16:48:20.930Z,65.55
2022-09-22T16:50:53.696Z,65.68
2022-09-22T16:53:24.834Z,66.08
2022-09-22T16:55:55.670Z,67.52
2022-09-22T16:58:24.573Z,67.13
2022-09-22T17:00:53.113Z,67.17
2022-09-22T17:03:23.213Z,67.19
2022-09-22T17:06:02.394Z,67.46
2022-09-22T17:08:31.615Z,67.36
2022-09-22T17:11:05.721Z,67.86
2022-09-22T17:13:34.311Z,68.75
2022-09-22T17:16:29.189Z,69.05
2022-09-22T17:19:02.516Z,69.98
2022-09-22T17:21:34.879Z,70.12
2022-09-22T17:24:09.693Z,69.76
2022-09-22T17:26:48.641Z,69.83
2022-09-22T17:29:28.791Z,70.14
2022-09-22T17:32:08.744Z,69.80
2022-09-22T17:34:39.047Z,70.32
2022-09-22T17:37:11.412Z,70.99
2022-09-22T17:39:45.302Z,70.79
2022-09-22T17:42:16.999Z,71.76
2022-09-22T17:44:57.255Z,71.53
2022-09-22T17:47:53.026Z,72.79
2022-09-22T17:50:43.313Z,71.87
2022-09-22T17:53:33.643Z,73.58
2022-09-22T17:56:07.150Z,73.59
2022-09-22T17:58:40.949Z,74.47
2022-09-22T18:01:12.978Z,74.64
2022-09-22T18:03:40.074Z,74.81
2022-09-22T18:06:23.586Z,75.83
2022-09-22T18:08:53.517Z,75.72
2022-09-22T18:11:22.394Z,76.00
2022-09-22T18:13:56.402Z,76.02
2022-09-22T18:16:30.186Z,75.92
2022-09-22T18:19:01.269Z,75.41
2022-09-22T18:21:32.091Z,76.34
2022-09-22T18:24:03.050Z,76.66
2022-09-22T18:26:38.190Z,77.04
2022-09-22T18:29:16.777Z,77.44
2022-09-22T18:31:48.247Z,77.42
2022-09-22T18:34:19.472Z,77.05
2022-09-22T18:36:50.510Z,78.26
2022-09-22T18:39:25.180Z,77.21
2022-09-22T18:41:55.772Z,76.94
2022-09-22T18:44:28.986Z,77.23
2022-09-22T18:47:02.554Z,77.21
2022-09-22T18:49:40.171Z,76.98
2022-09-22T18:52:11.689Z,76.84
2022-09-22T18:54:44.308Z,76.71
2022-09-22T18:57:18.471Z,76.60
2022-09-22T18:59:48.347Z,76.96
2022-09-22T19:02:23.189Z,77.69
2022-09-22T19:04:53.165Z,78.54
2022-09-22T19:07:42.598Z,78.63
2022-09-22T19:10:23.602Z,78.31
2022-09-22T19:12:52.388Z,76.82
2022-09-22T19:15:20.266Z,77.80
2022-09-22T19:17:50.066Z,78.05
2022-09-22T19:20:28.187Z,77.85
2022-09-22T19:23:00.360Z,79.02
2022-09-22T19:25:33.134Z,79.68
2022-09-22T19:28:01.713Z,80.52
2022-09-22T19:30:31.513Z,79.90
2022-09-22T19:33:02.145Z,79.31
2022-09-22T19:35:29.921Z,78.63
2022-09-22T19:38:00.372Z,80.86
2022-09-22T19:40:34.319Z,81.09
2022-09-22T19:43:04.874Z,81.16
2022-09-22T19:45:36.036Z,81.51
2022-09-22T19:48:09.231Z,82.78
2022-09-22T19:50:40.393Z,82.16
2022-09-22T19:53:08.539Z,81.67
2022-09-22T19:55:39.797Z,80.98
2022-09-22T19:58:10.915Z,81.33
2022-09-22T20:00:43.949Z,80.96
2022-09-22T20:03:16.910Z,81.46
2022-09-22T20:05:52.375Z,82.35
2022-09-22T20:08:24.135Z,84.00
2022-09-22T20:11:22.573Z,84.44
2022-09-22T20:14:08.286Z,84.68
2022-09-22T20:16:35.689Z,84.49
2022-09-22T20:19:03.889Z,84.34
2022-09-22T20:21:36.798Z,85.62
2022-09-22T20:24:06.097Z,86.30
2022-09-22T20:26:39.311Z,87.30
2022-09-22T20:29:07.369Z,87.60
2022-09-22T20:31:36.891Z,87.76
2022-09-22T20:34:14.562Z,87.00
2022-09-22T20:36:43.449Z,87.58
2022-09-22T20:39:17.039Z,88.87
2022-09-22T20:41:55.346Z,89.08
2022-09-22T20:44:26.003Z,88.84
2022-09-22T20:46:56.618Z,89.10
2022-09-22T20:49:27.614Z,89.27
2022-09-22T20:51:56.771Z,89.74
2022-09-22T20:54:27.583Z,89.41
2022-09-22T20:56:59.982Z,89.76
2022-09-22T20:59:31.934Z,92.74
2022-09-22T21:02:01.035Z,94.32
2022-09-22T21:04:31.983Z,94.12
2022-09-22T21:07:00.455Z,93.03
2022-09-22T21:09:51.532Z,93.08
2022-09-22T21:12:31.082Z,92.32
2022-09-22T21:14:59.611Z,92.42
2022-09-22T21:17:30.122Z,92.70
2022-09-22T21:20:00.113Z,93.14
2022-09-22T21:22:31.380Z,93.94
2022-09-22T21:24:59.454Z,93.67
2022-09-22T21:27:27.170Z,93.35
2022-09-22T21:29:58.068Z,92.83
2022-09-22T21:32:28.117Z,92.45
2022-09-22T21:35:00.675Z,92.68
2022-09-22T21:37:30.255Z,94.07
2022-09-22T21:39:59.013Z,94.51
2022-09-22T21:42:27.936Z,96.30
2022-09-22T21:45:00.836Z,96.29
2022-09-22T21:47:28.390Z,96.24
2022-09-22T21:49:59.629Z,95.87
2022-09-22T21:52:27.599Z,96.08
2022-09-22T21:54:56.708Z,97.69
2022-09-22T21:57:29.489Z,96.62
2022-09-22T21:59:58.087Z,95.65
2022-09-22T22:02:45.767Z,95.37
2022-09-22T22:05:15.395Z,95.71
2022-09-22T22:07:44.734Z,95.69
2022-09-22T22:10:16.372Z,95.30
2022-09-22T22:12:48.420Z,95.05
2022-09-22T22:15:16.899Z,96.03
2022-09-22T22:17:51.114Z,96.32
2022-09-22T22:20:21.543Z,95.89
2022-09-22T22:23:00.364Z,94.96
2022-09-22T22:25:28.618Z,94.66
2022-09-22T22:27:56.412Z,96.12
2022-09-22T22:30:24.710Z,96.76
2022-09-22T22:32:58.990Z,97.33
2022-09-22T22:35:27.257Z,97.55
2022-09-22T22:37:56.275Z,97.48
2022-09-22T22:40:26.243Z,96.76
2022-09-22T22:42:57.659Z,95.67
2022-09-22T22:45:28.708Z,94.49
2022-09-22T22:47:57.064Z,94.04
2022-09-22T22:50:35.366Z,94.44
2022-09-22T22:53:03.342Z,96.25
2022-09-22T22:55:41.705Z,96.13
2022-09-22T22:58:09.859Z,98.49
2022-09-22T23:00:39.691Z,98.24
2022-09-22T23:03:15.612Z,98.79
2022-09-22T23:05:43.871Z,98.42
2022-09-22T23:08:11.877Z,99.20
2022-09-22T23:10:42.609Z,100.00
2022-09-22T23:13:15.495Z,100.00
2022-09-22T23:15:47.975Z,100.00
2022-09-22T23:18:20.912Z,100.00
2022-09-22T23:20:52.064Z,100.00
2022-09-22T23:23:27.527Z,100.00
2022-09-22T23:26:02.647Z,100.00
2022-09-22T23:28:34.136Z,100.00
2022-09-22T23:31:10.737Z,100.00
2022-09-22T23:34:02.392Z,100.00
2022-09-22T23:36:30.366Z,100.00
2022-09-22T23:39:07.604Z,100.00
2022-09-22T23:41:40.332Z,100.00
2022-09-22T23:44:12.648Z,100.00
2022-09-22T23:46:46.400Z,100.00
2022-09-22T23:49:14.606Z,100.00
2022-09-22T23:51:44.697Z,100.00
2022-09-22T23:54:14.413Z,100.00
2022-09-22T23:56:46.446Z,100.00
2022-09-22T23:59:17.667Z,100.00
